KAYS/AYS METAR and TAF weather

Enter ICAO airport designator
Station Type Date Time Source
KAYS METAR 2019/06/16 06:55 UTC NOAA

KAYS 160655Z AUTO 00000KT 10SM CLR 24/21 A3007 RMK AO2 T02360208 TSNO


Station Type Date Time Source
KAYS Decoded METAR 2019/06/16 06:55 UTC NOAA

Waycross / Ware County, Ga, GA, United States (KAYS) 31-15N 082-24W 46M
Jun 16, 2019 - 02:55 AM EDT / 2019.06.16 0655 UTC
Wind: Calm:0
Visibility: 10 mile(s):0
Sky conditions: clear
Temperature: 74.5 F (23.6 C)
Dew Point: 69.4 F (20.8 C)
Relative Humidity: 84%
Pressure (altimeter): 30.07 in. Hg (1018 hPa)
ob: KAYS 160655Z AUTO 00000KT 10SM CLR 24/21 A3007 RMK AO2 T02360208 TSNO
cycle: 7

Station Type Date Time Source
KAYS TAF UTC NOAA

Error!

Example: see airport list